Time;durP1;ratioP1;P1;durP2;ratioP2;P2;SDS_P1;SDS_P2;PMS_P1;PMS_P2;Temp;Humidity;BMP_temperature;BMP_pressure;BME280_temperature;BME280_humidity;BME280_pressure;Samples;Min_cycle;Max_cycle;Signal;HPM_P1;HPM_P2
2022/06/23 00:02:23;;;;;;;12.53;7.83;;;19.60;99.90;;;;;;4969577;28;20912;-88
2022/06/23 00:04:52;;;;;;;19.83;10.50;;;19.60;99.90;;;;;;4952433;28;20453;-88
2022/06/23 00:07:24;;;;;;;14.27;10.30;;;19.50;99.90;;;;;;4962609;28;20452;-88
2022/06/23 00:09:55;;;;;;;18.53;10.67;;;19.60;99.90;;;;;;4957293;28;20441;-88
2022/06/23 00:12:31;;;;;;;16.23;11.70;;;19.60;99.90;;;;;;4958408;28;20434;-88
2022/06/23 00:15:17;;;;;;;17.47;11.63;;;19.50;99.90;;;;;;4969824;28;20468;-89
2022/06/23 00:17:45;;;;;;;12.67;10.10;;;19.40;99.90;;;;;;4971783;28;20449;-89
2022/06/23 00:20:40;;;;;;;11.60;9.93;;;19.30;99.90;;;;;;4953507;28;20472;-89
2022/06/23 00:23:19;;;;;;;15.10;10.27;;;19.10;99.90;;;;;;4942594;28;20583;-89
2022/06/23 00:25:57;;;;;;;14.53;10.57;;;19.00;99.90;;;;;;4964452;28;20443;-89
2022/06/23 00:28:42;;;;;;;13.73;11.60;;;18.90;99.90;;;;;;4966427;28;20575;-88
2022/06/23 00:31:28;;;;;;;19.23;10.13;;;18.80;99.90;;;;;;4952177;28;20522;-88
2022/06/23 00:33:55;;;;;;;19.40;10.10;;;18.60;99.90;;;;;;4974797;28;20440;-89
2022/06/23 00:36:41;;;;;;;16.37;11.80;;;18.50;99.90;;;;;;4970623;28;20483;-89
2022/06/23 00:39:35;;;;;;;16.77;11.20;;;18.50;99.90;;;;;;4958078;28;20441;-88
2022/06/23 00:42:07;;;;;;;22.10;12.60;;;18.50;99.90;;;;;;4963199;28;21921;-89
2022/06/23 00:44:55;;;;;;;17.20;12.53;;;18.80;99.90;;;;;;4962119;28;21740;-88
2022/06/23 00:47:45;;;;;;;22.10;11.07;;;18.80;99.90;;;;;;4960220;28;20457;-88
2022/06/23 00:50:38;;;;;;;17.07;11.20;;;18.70;99.90;;;;;;4958680;28;20451;-89
2022/06/23 00:53:12;;;;;;;12.20;10.97;;;18.60;99.90;;;;;;4973074;28;20978;-89
2022/06/23 00:55:41;;;;;;;14.47;10.07;;;18.60;99.90;;;;;;4973751;28;20835;-89
2022/06/23 00:58:44;;;;;;;10.77;9.70;;;18.60;99.90;;;;;;4958014;28;20993;-90
2022/06/23 01:01:16;;;;;;;12.43;10.80;;;18.70;99.90;;;;;;4950030;28;20938;-90
2022/06/23 01:04:07;;;;;;;13.37;11.00;;;18.70;99.90;;;;;;4960561;28;20432;-92
2022/06/23 01:06:40;;;;;;;10.20;8.10;;;18.70;99.90;;;;;;4955518;28;20541;-90
2022/06/23 01:09:22;;;;;;;10.80;9.00;;;18.60;99.90;;;;;;4953333;28;20425;-91
2022/06/23 01:11:55;;;;;;;11.40;9.70;;;18.80;99.90;;;;;;4961541;28;20495;-90
2022/06/23 01:14:49;;;;;;;10.30;9.33;;;18.90;99.90;;;;;;4956011;28;20457;-90
2022/06/23 01:17:41;;;;;;;9.90;7.80;;;18.80;99.90;;;;;;4971160;28;20598;-90
2022/06/23 01:20:20;;;;;;;12.60;9.83;;;18.70;99.90;;;;;;4970206;28;20437;-91
2022/06/23 01:22:48;;;;;;;9.30;8.30;;;18.70;99.90;;;;;;4956134;28;20456;-91
2022/06/23 01:25:29;;;;;;;8.67;7.77;;;18.70;99.90;;;;;;4959812;28;20504;-90
2022/06/23 01:28:17;;;;;;;8.93;8.23;;;18.60;99.90;;;;;;4973013;28;20536;-91
2022/06/23 01:31:06;;;;;;;35.97;9.27;;;18.40;99.90;;;;;;4944562;28;20456;-90
2022/06/23 01:33:40;;;;;;;8.23;7.53;;;18.20;99.90;;;;;;4972307;28;20450;-90
2022/06/23 01:36:12;;;;;;;8.50;7.27;;;18.10;99.90;;;;;;4949166;28;20504;-90
2022/06/23 01:39:10;;;;;;;8.73;7.30;;;18.10;99.90;;;;;;4954512;28;21112;-91
2022/06/23 01:41:42;;;;;;;9.13;8.33;;;18.10;99.90;;;;;;4944165;28;20542;-90
2022/06/23 01:44:13;;;;;;;9.40;7.70;;;18.00;99.90;;;;;;4960672;28;20455;-91
2022/06/23 01:46:42;;;;;;;8.97;8.10;;;18.20;99.90;;;;;;4958376;28;20807;-90
2022/06/23 01:49:20;;;;;;;9.50;8.50;;;18.10;99.90;;;;;;4972116;28;20476;-90
2022/06/23 01:51:57;;;;;;;10.40;8.90;;;18.20;99.90;;;;;;4959564;28;20471;-90
2022/06/23 01:54:26;;;;;;;10.00;9.00;;;18.40;99.90;;;;;;4956712;28;20683;-90
2022/06/23 01:57:02;;;;;;;18.53;10.80;;;18.50;99.90;;;;;;4958570;28;21361;-89
2022/06/23 01:59:45;;;;;;;9.67;8.77;;;18.50;99.90;;;;;;4949709;28;20887;-90
2022/06/23 02:02:26;;;;;;;25.17;10.13;;;18.50;99.90;;;;;;4955913;28;20485;-90
2022/06/23 02:05:28;;;;;;;17.93;8.20;;;18.40;99.90;;;;;;4956477;28;20466;-90
2022/06/23 02:08:02;;;;;;;17.23;8.67;;;18.20;99.90;;;;;;4968543;28;20880;-90
2022/06/23 02:10:50;;;;;;;8.67;7.87;;;18.10;99.90;;;;;;4955208;28;20474;-89
2022/06/23 02:13:40;;;;;;;11.10;7.70;;;18.00;99.90;;;;;;4957021;28;20448;-89
2022/06/23 02:16:52;;;;;;;8.90;7.70;;;18.00;99.90;;;;;;4970574;28;20845;-90
2022/06/23 02:19:37;;;;;;;17.13;8.90;;;17.90;99.90;;;;;;4956646;28;20503;-91
2022/06/23 02:22:29;;;;;;;13.20;10.60;;;17.60;99.90;;;;;;4961323;28;20452;-91
2022/06/23 02:25:03;;;;;;;12.93;9.00;;;17.50;99.90;;;;;;4975238;28;20448;-91
2022/06/23 02:27:47;;;;;;;16.90;10.93;;;17.40;99.90;;;;;;4954330;28;20440;-91
2022/06/23 02:30:17;;;;;;;9.83;8.83;;;17.50;99.90;;;;;;4975886;28;20520;-90
2022/06/23 02:32:55;;;;;;;9.73;7.73;;;17.50;99.90;;;;;;4954811;28;20503;-91
2022/06/23 02:35:30;;;;;;;8.63;7.80;;;17.70;99.90;;;;;;4967206;28;20586;-91
2022/06/23 02:38:03;;;;;;;9.00;8.20;;;17.80;99.90;;;;;;4969398;28;20433;-90
2022/06/23 02:40:41;;;;;;;27.13;9.00;;;18.00;99.90;;;;;;4955477;28;20444;-89
2022/06/23 02:43:13;;;;;;;13.30;8.80;;;18.00;99.90;;;;;;4961459;28;20436;-91
2022/06/23 02:46:06;;;;;;;9.87;8.97;;;18.00;99.90;;;;;;4972173;28;20480;-90
2022/06/23 02:48:43;;;;;;;10.50;8.93;;;18.00;99.90;;;;;;4958881;28;20448;-91
2022/06/23 02:51:42;;;;;;;11.40;8.90;;;17.90;99.90;;;;;;4948259;28;20657;-91
2022/06/23 02:54:40;;;;;;;8.07;7.37;;;18.00;99.90;;;;;;4947516;28;20448;-90
2022/06/23 02:57:44;;;;;;;16.33;8.80;;;18.00;99.90;;;;;;5067676;27;20524;-92
2022/06/23 03:00:25;;;;;;;17.30;8.77;;;18.10;99.90;;;;;;5073155;28;20437;-91
2022/06/23 03:03:03;;;;;;;10.03;8.30;;;18.20;99.90;;;;;;5053745;28;20441;-92
2022/06/23 03:05:34;;;;;;;9.60;8.17;;;18.10;99.90;;;;;;5059637;28;20435;-92
2022/06/23 03:08:03;;;;;;;11.50;8.10;;;18.10;99.90;;;;;;5054036;28;20529;-93
2022/06/23 03:10:47;;;;;;;12.87;8.97;;;18.20;99.90;;;;;;5055815;28;20440;-93
2022/06/23 03:13:43;;;;;;;11.23;8.90;;;18.10;99.90;;;;;;5051145;28;20944;-93
2022/06/23 03:16:17;;;;;;;19.60;8.60;;;18.00;99.90;;;;;;5049102;28;20864;-93
2022/06/23 03:18:54;;;;;;;28.50;9.17;;;18.10;99.90;;;;;;5050066;28;20436;-93
2022/06/23 03:21:50;;;;;;;22.00;8.17;;;18.00;99.90;;;;;;5066301;28;20473;-93
2022/06/23 03:24:27;;;;;;;16.87;8.40;;;17.90;99.90;;;;;;5045216;28;20517;-92
2022/06/23 03:27:11;;;;;;;8.20;7.40;;;17.80;99.90;;;;;;5052692;28;20442;-92
2022/06/23 03:30:06;;;;;;;11.03;7.83;;;17.90;99.90;;;;;;5049543;28;20483;-93
2022/06/23 03:32:48;;;;;;;8.80;7.63;;;18.00;99.90;;;;;;5040697;28;20437;-92
2022/06/23 03:35:21;;;;;;;12.80;6.10;;;17.90;99.90;;;;;;5045003;28;20553;-92
2022/06/23 03:38:06;;;;;;;12.30;6.10;;;17.90;99.90;;;;;;5053891;28;20448;-92
2022/06/23 03:43:31;;;;;;;6.43;5.83;;;18.10;99.90;;;;;;5050293;28;20514;-93
2022/06/23 03:46:05;;;;;;;10.83;6.70;;;18.10;99.90;;;;;;5046470;28;21005;-92
2022/06/23 03:48:41;;;;;;;10.03;6.70;;;18.10;99.90;;;;;;5047460;28;20433;-92
2022/06/23 03:51:14;;;;;;;8.03;7.23;;;18.20;99.90;;;;;;5055593;28;20449;-93
2022/06/23 03:53:52;;;;;;;6.67;6.17;;;18.20;99.90;;;;;;5056332;28;20536;-93
2022/06/23 03:56:21;;;;;;;7.57;5.70;;;18.20;99.90;;;;;;5054579;28;20488;-93
2022/06/23 03:59:01;;;;;;;6.50;5.90;;;18.10;99.90;;;;;;5048050;28;20441;-91
2022/06/23 04:02:25;;;;;;;10.43;6.53;;;18.10;99.90;;;;;;5045431;28;20440;-92
2022/06/23 04:05:00;;;;;;;7.60;6.20;;;18.00;99.90;;;;;;4989097;28;20810;-91
2022/06/23 04:07:28;;;;;;;7.47;6.77;;;18.10;99.90;;;;;;4992648;28;20470;-91
2022/06/23 04:09:59;;;;;;;11.20;5.90;;;18.20;99.90;;;;;;5004237;28;20960;-92
2022/06/23 04:12:25;;;;;;;7.20;6.30;;;18.20;99.90;;;;;;5048634;28;20430;-93
2022/06/23 04:15:06;;;;;;;6.90;6.20;;;18.20;99.90;;;;;;5037717;28;20434;-92
2022/06/23 04:17:39;;;;;;;7.13;6.30;;;18.10;99.90;;;;;;5038580;28;20653;-91
2022/06/23 04:20:29;;;;;;;7.33;6.23;;;18.20;99.90;;;;;;5033902;28;20425;-92
2022/06/23 04:23:05;;;;;;;10.27;6.00;;;18.20;99.90;;;;;;5031788;28;20456;-92
2022/06/23 04:25:47;;;;;;;9.13;5.97;;;18.00;99.90;;;;;;5034420;28;20449;-92
2022/06/23 04:28:23;;;;;;;7.73;5.97;;;18.00;99.90;;;;;;5032658;28;20508;-91
2022/06/23 04:30:51;;;;;;;8.30;6.23;;;18.00;99.90;;;;;;5041582;28;20437;-90
2022/06/23 04:33:21;;;;;;;6.80;6.10;;;17.80;99.90;;;;;;5028562;28;20731;-90
2022/06/23 04:35:51;;;;;;;6.47;5.67;;;17.70;99.90;;;;;;5040680;28;20469;-91
2022/06/23 04:38:24;;;;;;;6.67;6.00;;;17.80;99.90;;;;;;5029877;28;20431;-91
2022/06/23 04:41:00;;;;;;;6.17;5.60;;;17.90;99.90;;;;;;5040308;28;20449;-89
2022/06/23 04:43:32;;;;;;;8.53;5.70;;;18.10;99.90;;;;;;5035270;28;20438;-90
2022/06/23 04:46:05;;;;;;;8.10;5.67;;;18.20;99.90;;;;;;5047934;28;20452;-90
2022/06/23 04:48:45;;;;;;;7.03;6.07;;;18.20;99.90;;;;;;5041332;28;20438;-90
2022/06/23 04:51:23;;;;;;;8.20;6.57;;;18.10;99.90;;;;;;5040305;28;20983;-91
2022/06/23 04:54:31;;;;;;;6.80;5.70;;;18.10;99.90;;;;;;5033462;28;20438;-90
2022/06/23 04:57:11;;;;;;;7.23;5.37;;;18.10;99.90;;;;;;4975390;28;20505;-89
2022/06/23 04:59:51;;;;;;;9.33;6.50;;;18.10;99.90;;;;;;4964830;28;20571;-90
2022/06/23 05:02:20;;;;;;;7.03;5.73;;;18.10;99.90;;;;;;5031335;28;20442;-90
2022/06/23 05:04:53;;;;;;;7.87;6.30;;;18.20;99.90;;;;;;5044708;28;20430;-91
2022/06/23 05:07:43;;;;;;;6.73;6.00;;;18.30;99.90;;;;;;5034542;28;20506;-90
2022/06/23 05:10:25;;;;;;;9.10;6.10;;;18.30;99.90;;;;;;5043327;28;20446;-90
2022/06/23 05:13:00;;;;;;;6.43;5.83;;;18.50;99.90;;;;;;5038155;28;20549;-90
2022/06/23 05:15:36;;;;;;;6.30;5.70;;;18.70;99.90;;;;;;5035983;28;21089;-90
2022/06/23 05:18:10;;;;;;;8.53;5.53;;;18.80;99.90;;;;;;5040446;28;20430;-90
2022/06/23 05:20:47;;;;;;;7.27;5.63;;;18.90;99.90;;;;;;5037047;28;20496;-90
2022/06/23 05:23:25;;;;;;;9.00;6.00;;;18.90;99.90;;;;;;5033752;28;20437;-89
2022/06/23 05:25:55;;;;;;;7.67;5.87;;;18.80;99.90;;;;;;5032433;28;20560;-90
2022/06/23 05:28:30;;;;;;;7.13;6.03;;;18.90;99.90;;;;;;5027641;28;20534;-89
2022/06/23 05:30:59;;;;;;;8.17;5.80;;;18.90;99.90;;;;;;5034438;28;20444;-89
2022/06/23 05:33:33;;;;;;;8.70;6.60;;;19.00;99.90;;;;;;5028570;28;20469;-88
2022/06/23 05:36:05;;;;;;;9.93;6.70;;;19.00;99.90;;;;;;5031079;28;20446;-90
2022/06/23 05:38:33;;;;;;;9.50;6.37;;;19.10;99.90;;;;;;5037184;28;20451;-90
2022/06/23 05:41:03;;;;;;;11.07;6.50;;;19.10;99.90;;;;;;5032740;28;20981;-89
2022/06/23 05:43:33;;;;;;;7.50;6.20;;;19.20;99.90;;;;;;5037551;28;20430;-90
2022/06/23 05:46:01;;;;;;;8.10;6.80;;;19.20;99.90;;;;;;5026974;28;20704;-89
2022/06/23 05:48:35;;;;;;;8.60;6.93;;;19.20;99.90;;;;;;5055801;28;20492;-89
2022/06/23 05:51:10;;;;;;;7.70;6.50;;;19.10;99.90;;;;;;5055818;28;20447;-90
2022/06/23 05:53:57;;;;;;;8.27;6.73;;;19.20;99.90;;;;;;5043728;28;20755;-91
2022/06/23 05:56:30;;;;;;;11.20;7.60;;;19.20;99.90;;;;;;5030066;28;20477;-90
2022/06/23 05:59:01;;;;;;;6.97;6.00;;;19.20;99.90;;;;;;5028827;28;21035;-91
2022/06/23 06:01:43;;;;;;;9.17;6.47;;;19.30;99.90;;;;;;5031520;28;20527;-90
2022/06/23 06:04:19;;;;;;;6.00;5.50;;;19.50;99.90;;;;;;5034809;28;20441;-91
2022/06/23 06:06:45;;;;;;;7.57;6.37;;;19.60;99.90;;;;;;5037909;28;20503;-90
2022/06/23 06:12:05;;;;;;;7.30;6.03;;;19.80;99.90;;;;;;5035746;28;20961;-91
2022/06/23 06:14:47;;;;;;;6.97;6.17;;;20.00;99.90;;;;;;5040953;28;20430;-91
2022/06/23 06:17:20;;;;;;;7.43;6.20;;;20.00;99.90;;;;;;5044288;28;20488;-90
2022/06/23 06:19:48;;;;;;;10.00;6.07;;;20.00;99.90;;;;;;5034435;28;20914;-91
2022/06/23 06:22:22;;;;;;;7.63;6.33;;;20.10;99.90;;;;;;5037283;28;20509;-90
2022/06/23 06:24:51;;;;;;;10.13;5.17;;;20.10;99.90;;;;;;5035685;28;20453;-90
2022/06/23 06:27:18;;;;;;;12.07;5.90;;;20.10;99.90;;;;;;5031385;28;20474;-91
2022/06/23 06:29:45;;;;;;;7.50;5.17;;;20.00;99.90;;;;;;5042139;28;20441;-90
2022/06/23 06:32:29;;;;;;;7.83;4.90;;;20.00;99.90;;;;;;5037387;28;20962;-90
2022/06/23 06:35:18;;;;;;;7.83;4.73;;;20.20;99.90;;;;;;5034218;28;20430;-90
2022/06/23 06:37:51;;;;;;;9.37;6.70;;;20.30;99.90;;;;;;5041449;28;20438;-90
2022/06/23 06:40:18;;;;;;;6.67;4.97;;;20.40;99.90;;;;;;5039006;28;20438;-91
2022/06/23 06:42:52;;;;;;;6.73;5.00;;;20.40;99.90;;;;;;5033698;28;20529;-92
2022/06/23 06:45:21;;;;;;;9.07;5.57;;;20.50;99.90;;;;;;5030128;28;20437;-91
2022/06/23 06:47:47;;;;;;;12.30;6.17;;;20.40;99.90;;;;;;5035753;28;20547;-91
2022/06/23 06:50:19;;;;;;;8.80;4.70;;;20.50;99.90;;;;;;5039871;28;20446;-92
2022/06/23 06:52:51;;;;;;;5.00;4.53;;;20.60;99.90;;;;;;5046343;28;20942;-90
2022/06/23 06:55:41;;;;;;;9.83;5.00;;;20.60;99.90;;;;;;5041673;28;20956;-92
2022/06/23 06:58:13;;;;;;;6.53;4.03;;;20.60;99.90;;;;;;5027505;28;20468;-91
2022/06/23 07:00:47;;;;;;;7.93;4.47;;;20.70;99.90;;;;;;5029568;28;20527;-90
2022/06/23 07:03:16;;;;;;;6.33;4.60;;;20.90;99.90;;;;;;5029774;28;20464;-91
2022/06/23 07:05:59;;;;;;;4.63;4.23;;;20.90;99.90;;;;;;5032546;28;20462;-91
2022/06/23 07:08:43;;;;;;;6.30;4.90;;;21.00;99.90;;;;;;5027194;28;21088;-89
2022/06/23 07:11:22;;;;;;;5.57;4.47;;;21.20;99.90;;;;;;5039121;28;20453;-90
2022/06/23 07:14:14;;;;;;;5.40;4.63;;;21.10;99.90;;;;;;5027374;28;20453;-90
2022/06/23 07:16:51;;;;;;;7.27;4.87;;;21.20;99.90;;;;;;5033161;28;20861;-90
2022/06/23 07:19:19;;;;;;;7.53;5.10;;;21.20;99.90;;;;;;5051231;28;20433;-92
2022/06/23 07:21:51;;;;;;;6.23;4.57;;;21.20;99.90;;;;;;5029570;28;20483;-90
2022/06/23 07:24:44;;;;;;;4.90;4.40;;;21.10;99.90;;;;;;5051239;28;20439;-89
2022/06/23 07:27:39;;;;;;;6.90;4.40;;;21.20;99.90;;;;;;5031813;28;20531;-89
2022/06/23 07:30:22;;;;;;;7.50;4.30;;;21.30;99.90;;;;;;5037274;28;20815;-91
2022/06/23 07:33:08;;;;;;;5.87;4.03;;;21.50;99.90;;;;;;5036235;28;20450;-90
2022/06/23 07:35:48;;;;;;;5.83;4.40;;;21.70;99.90;;;;;;5049775;28;20442;-89
2022/06/23 07:38:34;;;;;;;5.80;3.87;;;21.80;99.90;;;;;;5030179;28;20496;-90
2022/06/23 07:41:03;;;;;;;8.73;4.20;;;22.00;99.90;;;;;;5033881;28;20496;-90
2022/06/23 07:43:44;;;;;;;5.50;4.20;;;22.20;99.90;;;;;;5026555;28;20438;-91
2022/06/23 07:46:10;;;;;;;4.87;3.90;;;22.40;99.90;;;;;;5019630;28;20476;-90
2022/06/23 07:48:37;;;;;;;6.27;3.80;;;22.50;99.90;;;;;;5025625;28;20442;-93
2022/06/23 07:51:08;;;;;;;7.77;4.40;;;22.60;99.90;;;;;;5036091;28;20180;-92
2022/06/23 07:53:46;;;;;;;4.80;4.30;;;22.70;99.90;;;;;;5022531;28;20449;-92
2022/06/23 07:56:19;;;;;;;7.57;4.37;;;22.70;99.90;;;;;;5028129;28;20553;-91
2022/06/23 07:58:51;;;;;;;12.50;4.60;;;22.70;99.90;;;;;;5037046;28;20510;-92
2022/06/23 08:01:29;;;;;;;6.50;4.17;;;22.60;99.90;;;;;;5036451;28;20444;-93
2022/06/23 08:04:03;;;;;;;5.80;3.90;;;22.60;99.90;;;;;;5040204;28;20476;-92
2022/06/23 08:06:29;;;;;;;7.90;4.10;;;22.80;99.90;;;;;;5046398;28;20475;-91
2022/06/23 08:09:33;;;;;;;8.13;4.23;;;23.10;99.90;;;;;;5031940;28;20429;-91
2022/06/23 08:18:03;;;;;;;5.87;4.40;;;23.60;99.90;;;;;;5030967;28;20856;-91
2022/06/23 08:20:33;;;;;;;5.87;4.63;;;23.60;99.90;;;;;;5032815;28;20446;-91
2022/06/23 08:23:13;;;;;;;6.20;4.97;;;23.40;99.90;;;;;;5033697;28;20438;-90
2022/06/23 08:25:40;;;;;;;9.77;4.10;;;23.60;99.90;;;;;;5054227;28;20465;-90
2022/06/23 08:28:07;;;;;;;6.93;3.70;;;23.80;99.90;;;;;;5039078;28;20966;-90
2022/06/23 08:30:36;;;;;;;6.00;3.90;;;23.90;99.90;;;;;;5039049;28;20480;-90
2022/06/23 08:33:03;;;;;;;6.93;4.20;;;23.90;99.90;;;;;;5053787;28;20461;-91
2022/06/23 08:35:50;;;;;;;5.23;3.60;;;24.00;99.90;;;;;;5037933;28;20457;-90
2022/06/23 08:38:20;;;;;;;5.40;3.60;;;24.10;99.90;;;;;;5022211;28;21302;-91
2022/06/23 08:41:03;;;;;;;9.40;4.00;;;24.20;99.90;;;;;;5027829;28;20954;-90
2022/06/23 08:43:44;;;;;;;6.70;4.37;;;24.40;99.90;;;;;;5054730;28;20456;-92
2022/06/23 08:46:33;;;;;;;8.80;4.40;;;24.30;99.90;;;;;;5052036;28;20473;-92
2022/06/23 08:49:14;;;;;;;6.13;3.83;;;24.40;99.90;;;;;;5020773;28;20434;-90
2022/06/23 08:52:15;;;;;;;4.53;3.30;;;24.40;99.90;;;;;;5040425;28;21125;-93
2022/06/23 08:55:13;;;;;;;7.30;3.63;;;24.60;99.90;;;;;;5027510;28;20438;-92
2022/06/23 08:57:58;;;;;;;8.60;3.53;;;24.70;99.90;;;;;;5048002;28;20831;-90
2022/06/23 09:00:37;;;;;;;7.40;3.70;;;24.80;99.90;;;;;;5036990;28;20505;-92
2022/06/23 09:03:07;;;;;;;5.23;4.20;;;24.70;99.90;;;;;;5036455;28;20564;-91
2022/06/23 09:05:46;;;;;;;6.90;4.73;;;24.60;99.90;;;;;;5030696;28;20469;-90
2022/06/23 09:08:27;;;;;;;5.03;4.47;;;24.70;99.90;;;;;;5028411;28;20458;-93
2022/06/23 09:11:15;;;;;;;6.50;4.50;;;24.70;99.90;;;;;;5039437;28;20777;-93
2022/06/23 09:14:09;;;;;;;9.83;4.20;;;24.90;99.90;;;;;;5028611;28;20431;-92
2022/06/23 09:17:06;;;;;;;6.60;4.87;;;25.00;99.90;;;;;;5028191;28;20452;-92
2022/06/23 09:20:01;;;;;;;8.37;3.90;;;25.20;99.90;;;;;;5037815;28;20445;-92
2022/06/23 09:22:41;;;;;;;6.27;4.20;;;25.40;99.90;;;;;;5050279;28;20947;-93
2022/06/23 09:25:33;;;;;;;8.33;4.77;;;25.40;99.90;;;;;;5031313;28;20834;-92
2022/06/23 09:27:59;;;;;;;6.83;3.53;;;25.40;99.90;;;;;;5030136;28;20450;-92
2022/06/23 09:30:38;;;;;;;6.13;4.03;;;25.40;99.90;;;;;;5032874;28;20438;-91
2022/06/23 09:33:26;;;;;;;7.03;3.67;;;25.70;99.90;;;;;;5035400;28;20186;-91
2022/06/23 09:36:00;;;;;;;5.70;3.57;;;25.70;99.90;;;;;;5038856;28;20442;-92
2022/06/23 09:39:01;;;;;;;8.83;3.90;;;25.60;99.90;;;;;;5041743;28;20436;-93
2022/06/23 09:41:51;;;;;;;8.10;3.37;;;25.70;99.90;;;;;;4998267;28;20533;-93
2022/06/23 09:44:34;;;;;;;6.17;3.40;;;25.80;99.90;;;;;;5030920;28;20480;-91
2022/06/23 09:47:33;;;;;;;3.87;3.47;;;26.00;99.90;;;;;;5035776;28;20967;-91
2022/06/23 09:50:20;;;;;;;6.30;3.30;;;26.10;99.90;;;;;;5031160;28;20466;-91
2022/06/23 09:52:57;;;;;;;4.00;2.97;;;26.20;99.90;;;;;;5050663;28;20464;-92
2022/06/23 09:55:45;;;;;;;10.10;3.77;;;26.30;99.90;;;;;;5033032;28;20545;-92
2022/06/23 09:58:45;;;;;;;9.00;4.07;;;26.40;99.90;;;;;;5032099;28;20457;-92
2022/06/23 10:01:27;;;;;;;7.80;4.10;;;26.70;99.90;;;;;;5052501;28;20439;-93
2022/06/23 10:04:28;;;;;;;6.83;4.30;;;26.60;99.90;;;;;;5036662;28;20531;-92
2022/06/23 10:07:26;;;;;;;6.33;3.53;;;26.50;99.90;;;;;;5003400;28;20536;-92
2022/06/23 10:10:12;;;;;;;4.97;3.60;;;26.50;99.90;;;;;;5038622;28;20465;-92
2022/06/23 10:12:40;;;;;;;7.60;3.77;;;26.70;99.90;;;;;;5052958;28;20529;-91
2022/06/23 10:15:46;;;;;;;5.53;3.47;;;26.70;99.90;;;;;;5032949;28;20434;-93
2022/06/23 10:18:38;;;;;;;10.37;4.00;;;27.00;99.90;;;;;;5031512;28;20438;-93
2022/06/23 10:21:10;;;;;;;6.23;4.03;;;26.60;99.90;;;;;;5014650;28;20438;-94
2022/06/23 10:23:45;;;;;;;5.13;3.47;;;26.90;99.90;;;;;;5039555;28;20442;-93
2022/06/23 10:26:27;;;;;;;4.90;3.17;;;27.10;99.90;;;;;;5051925;28;20511;-94
2022/06/23 10:28:57;;;;;;;6.37;3.80;;;27.40;99.10;;;;;;5054964;28;20442;-93
2022/06/23 10:31:25;;;;;;;6.80;2.97;;;27.60;99.80;;;;;;5053561;28;20802;-93
2022/06/23 10:34:20;;;;;;;5.63;3.63;;;27.50;99.90;;;;;;5043282;28;20425;-93
2022/06/23 10:37:24;;;;;;;7.40;4.00;;;27.70;99.60;;;;;;5041969;28;20457;-93
2022/06/23 10:40:19;;;;;;;8.77;3.93;;;27.40;98.90;;;;;;5035687;28;20434;-93
2022/06/23 10:42:50;;;;;;;6.63;3.37;;;27.70;99.90;;;;;;5047752;28;20445;-95
2022/06/23 10:45:31;;;;;;;6.60;3.30;;;28.00;98.80;;;;;;5047701;28;24368;-93
2022/06/23 10:48:15;;;;;;;7.27;3.80;;;28.10;99.90;;;;;;5038620;28;20520;-92
2022/06/23 10:50:49;;;;;;;5.20;3.90;;;28.30;97.80;;;;;;5035668;28;20525;-94
2022/06/23 10:53:53;;;;;;;5.80;4.03;;;28.60;99.30;;;;;;5031880;28;21814;-95
2022/06/23 10:56:40;;;;;;;8.60;3.90;;;28.50;96.80;;;;;;5026370;28;20935;-93
2022/06/23 10:59:06;;;;;;;6.97;3.80;;;28.50;99.40;;;;;;5040367;28;20442;-92
2022/06/23 11:01:50;;;;;;;8.37;4.30;;;28.30;99.20;;;;;;5035461;28;20464;-94
2022/06/23 11:04:56;;;;;;;6.47;4.30;;;28.10;99.40;;;;;;5047396;28;21178;-94
2022/06/23 11:07:40;;;;;;;6.03;3.97;;;28.30;99.10;;;;;;5038683;28;20485;-93
2022/06/23 11:10:09;;;;;;;7.83;4.50;;;28.30;98.10;;;;;;5022450;28;20461;-94
2022/06/23 11:12:50;;;;;;;7.03;4.40;;;28.50;97.80;;;;;;5039890;28;20449;-94
2022/06/23 11:15:37;;;;;;;6.27;3.83;;;28.50;98.70;;;;;;5043811;28;20442;-93
2022/06/23 11:18:16;;;;;;;8.07;4.50;;;28.70;97.20;;;;;;5028546;28;20524;-93
2022/06/23 11:21:07;;;;;;;9.00;4.30;;;28.60;98.20;;;;;;5034409;28;20994;-93
2022/06/23 11:24:05;;;;;;;3.80;3.30;;;28.80;97.60;;;;;;5053571;28;20463;-95
2022/06/23 11:26:54;;;;;;;5.43;3.87;;;29.20;96.70;;;;;;5026983;28;20470;-94
2022/06/23 11:29:53;;;;;;;5.90;3.93;;;29.20;97.50;;;;;;5031266;28;20433;-95
2022/06/23 11:32:26;;;;;;;9.23;3.60;;;29.10;97.00;;;;;;5047281;28;20442;-94
2022/06/23 11:35:22;;;;;;;4.77;3.30;;;29.10;97.10;;;;;;5045991;28;20442;-95
2022/06/23 11:38:25;;;;;;;6.57;4.27;;;29.10;96.40;;;;;;5043077;28;20438;-93
2022/06/23 11:41:06;;;;;;;7.33;4.27;;;29.20;96.40;;;;;;5037068;28;20501;-94
2022/06/23 11:43:55;;;;;;;7.73;4.23;;;29.30;95.70;;;;;;5024131;28;20988;-95
2022/06/23 11:46:29;;;;;;;9.00;3.90;;;29.40;96.70;;;;;;5051606;28;20481;-93
2022/06/23 11:49:35;;;;;;;4.20;3.77;;;29.50;96.70;;;;;;5034031;28;20433;-96
2022/06/23 11:52:05;;;;;;;5.70;3.80;;;29.50;96.70;;;;;;5041581;28;20540;-92
2022/06/23 11:54:54;;;;;;;7.47;4.07;;;29.90;94.40;;;;;;5056269;28;20855;-93
2022/06/23 11:57:40;;;;;;;5.17;3.57;;;29.40;93.80;;;;;;5029482;28;21794;-90
2022/06/23 12:00:07;;;;;;;5.93;4.00;;;28.70;96.00;;;;;;5048077;28;20796;-89
2022/06/23 12:02:57;;;;;;;7.00;4.70;;;28.40;96.60;;;;;;5041073;28;20879;-88
2022/06/23 12:06:11;;;;;;;5.70;3.97;;;28.90;98.80;;;;;;5031127;28;20809;-89
2022/06/23 12:08:55;;;;;;;9.17;4.87;;;29.50;96.20;;;;;;5002694;28;20513;-89
2022/06/23 12:11:21;;;;;;;5.97;4.30;;;29.60;96.10;;;;;;5029495;28;20443;-88
2022/06/23 12:13:47;;;;;;;7.80;3.57;;;29.90;95.30;;;;;;5042564;28;20446;-89
2022/06/23 12:16:13;;;;;;;6.10;4.37;;;30.00;94.50;;;;;;5031771;28;20491;-89
2022/06/23 12:18:54;;;;;;;6.63;3.00;;;30.20;96.60;;;;;;5033024;28;20447;-90
2022/06/23 12:21:35;;;;;;;6.93;3.70;;;30.40;94.00;;;;;;5044456;28;20270;-89
2022/06/23 12:24:13;;;;;;;6.43;3.20;;;30.40;92.80;;;;;;5046064;28;20442;-89
2022/06/23 12:27:09;;;;;;;8.93;4.30;;;30.60;94.40;;;;;;5036773;28;20469;-89
2022/06/23 12:30:05;;;;;;;8.27;3.50;;;30.80;92.40;;;;;;5049722;28;20664;-89
2022/06/23 12:32:54;;;;;;;5.77;4.13;;;31.30;91.20;;;;;;5041720;28;20480;-89
2022/06/23 12:35:37;;;;;;;4.63;3.43;;;31.20;92.70;;;;;;5040504;28;20493;-89
2022/06/23 12:38:21;;;;;;;4.83;3.47;;;31.30;91.20;;;;;;5039365;28;20448;-89
2022/06/23 12:41:13;;;;;;;6.27;3.50;;;31.10;90.90;;;;;;5031506;28;21009;-89
2022/06/23 12:43:45;;;;;;;4.70;3.20;;;30.60;91.70;;;;;;5038692;28;20437;-89
2022/06/23 12:46:36;;;;;;;5.07;3.50;;;30.80;92.80;;;;;;5044801;28;20496;-89
2022/06/23 12:49:35;;;;;;;5.57;3.60;;;30.20;90.90;;;;;;5061095;28;20525;-90
2022/06/23 12:52:23;;;;;;;4.90;3.20;;;29.70;92.20;;;;;;5030670;28;20449;-90
2022/06/23 12:54:51;;;;;;;7.80;3.80;;;30.60;92.40;;;;;;5057409;28;20437;-89
2022/06/23 12:58:02;;;;;;;4.30;3.10;;;31.40;91.10;;;;;;5036627;28;20874;-89
2022/06/23 13:00:49;;;;;;;6.23;3.50;;;31.20;89.90;;;;;;5011458;28;20437;-90
2022/06/23 13:03:26;;;;;;;5.40;3.50;;;31.50;91.20;;;;;;5036210;28;20961;-92
2022/06/23 13:05:56;;;;;;;9.03;3.70;;;30.80;91.40;;;;;;5037333;28;20500;-91
2022/06/23 13:08:28;;;;;;;5.13;3.20;;;30.70;92.50;;;;;;5036946;28;20527;-90
2022/06/23 13:11:02;;;;;;;5.83;3.70;;;31.20;89.10;;;;;;5035674;28;20443;-90
2022/06/23 13:14:00;;;;;;;5.03;3.80;;;31.80;90.60;;;;;;5049118;28;20528;-90
2022/06/23 13:16:29;;;;;;;6.60;3.60;;;31.50;90.50;;;;;;5020374;28;20468;-90
2022/06/23 13:19:05;;;;;;;4.93;3.27;;;31.10;90.80;;;;;;5037919;28;20434;-89
2022/06/23 13:21:33;;;;;;;6.63;4.07;;;31.40;89.60;;;;;;5035608;28;20424;-91
2022/06/23 13:24:02;;;;;;;5.27;3.40;;;31.70;89.40;;;;;;5037049;28;20437;-91
2022/06/23 13:26:42;;;;;;;6.47;3.20;;;31.90;85.00;;;;;;5032389;28;21078;-92
2022/06/23 13:29:16;;;;;;;4.57;3.27;;;32.20;90.10;;;;;;5032377;28;20524;-91
2022/06/23 13:31:47;;;;;;;5.63;3.10;;;32.00;85.70;;;;;;5033081;28;21289;-93
2022/06/23 13:34:28;;;;;;;9.27;3.30;;;32.60;85.30;;;;;;5043604;28;20507;-92
2022/06/23 13:36:59;;;;;;;11.40;4.00;;;32.60;87.10;;;;;;5042650;28;20450;-92
2022/06/23 13:39:44;;;;;;;5.80;3.40;;;32.60;84.60;;;;;;5029915;28;20438;-91
2022/06/23 13:42:23;;;;;;;5.73;3.67;;;32.80;80.40;;;;;;5030977;28;20449;-91
2022/06/23 13:45:29;;;;;;;6.27;2.63;;;32.70;85.90;;;;;;5026651;28;20437;-90
2022/06/23 13:48:17;;;;;;;7.00;3.23;;;32.80;84.90;;;;;;5024151;28;20453;-91
2022/06/23 13:50:56;;;;;;;7.50;3.17;;;32.80;85.60;;;;;;5037239;28;20563;-91
2022/06/23 13:53:41;;;;;;;5.60;3.23;;;33.10;79.30;;;;;;5035140;28;20437;-91
2022/06/23 13:56:34;;;;;;;4.83;3.30;;;33.30;78.90;;;;;;5031577;28;20429;-91
2022/06/23 13:59:05;;;;;;;4.20;3.40;;;34.00;76.80;;;;;;5036229;28;20855;-90
2022/06/23 14:01:39;;;;;;;4.33;3.77;;;36.60;73.40;;;;;;5043619;28;20508;-91
2022/06/23 14:04:35;;;;;;;8.13;3.77;;;37.10;70.90;;;;;;5032633;28;20438;-90